Terminal Aerodrome Forecast
Issued by NWS

Home | Current Version | Previous Version | Text Only | Print | Product List | Glossary On
Versions: 1 2 3 4 5 6 7 8 9 10 11 12 13 14 15 16 17
000
FTUS43 KDTX 251738
TAFPTK
TAF
KPTK 251738Z 2518/2618 28015G23KT P6SM SCT025
      TEMPO 2518/2519 6SM HZ BKN025
     FM252000 29015G25KT P6SM FEW040
     FM260000 29012KT P6SM SKC
     FM260300 27006KT P6SM SKC=

USA.gov is the U.S. government's official web portal to all federal, state and local government web resources and services.